Time;durP1;ratioP1;P1;durP2;ratioP2;P2;SDS_P1;SDS_P2;PMS_P1;PMS_P2;Temp;Humidity;BMP_temperature;BMP_pressure;BME280_temperature;BME280_humidity;BME280_pressure;Samples;Min_cycle;Max_cycle;Signal;HPM_P1;HPM_P2
2021/12/18 00:01:03;;;;;;;3.63;1.80;;;;;;;;;;4974069;28;20034;-60
2021/12/18 00:03:30;;;;;;;5.27;2.00;;;;;;;;;;4974624;28;20106;-60
2021/12/18 00:05:57;;;;;;;6.33;1.93;;;;;;;;;;4974628;28;20165;-59
2021/12/18 00:08:24;;;;;;;3.53;1.53;;;;;;;;;;4974188;28;20038;-60
2021/12/18 00:10:52;;;;;;;5.80;2.13;;;;;;;;;;4969629;28;20045;-60
2021/12/18 00:13:19;;;;;;;3.93;1.70;;;;;;;;;;4968950;28;20378;-60
2021/12/18 00:15:46;;;;;;;9.80;2.47;;;;;;;;;;4969000;28;20537;-60
2021/12/18 00:18:12;;;;;;;4.47;2.10;;;;;;;;;;4968214;28;20027;-60
2021/12/18 00:20:39;;;;;;;12.53;2.37;;;;;;;;;;4971950;28;20031;-60
2021/12/18 00:23:06;;;;;;;8.23;2.60;;;;;;;;;;4974541;28;20066;-59
2021/12/18 00:25:33;;;;;;;6.23;2.20;;;;;;;;;;4974051;28;20089;-60
2021/12/18 00:28:01;;;;;;;8.47;3.67;;;;;;;;;;4974157;28;20026;-59
2021/12/18 00:30:28;;;;;;;4.80;2.33;;;;;;;;;;4974129;28;20063;-60
2021/12/18 00:32:54;;;;;;;9.03;2.77;;;;;;;;;;4970341;28;20110;-60
2021/12/18 00:35:21;;;;;;;9.13;2.80;;;;;;;;;;4968509;28;20023;-59
2021/12/18 00:37:48;;;;;;;9.13;2.53;;;;;;;;;;4968550;28;20031;-61
2021/12/18 00:40:22;;;;;;;7.77;2.60;;;;;;;;;;4968592;28;20045;-60
2021/12/18 00:43:02;;;;;;;4.80;2.28;;;;;;;;;;4971161;28;20031;-59
2021/12/18 00:45:29;;;;;;;9.73;3.10;;;;;;;;;;4973747;28;20109;-59
2021/12/18 00:47:56;;;;;;;6.17;2.77;;;;;;;;;;4973590;28;20023;-59
2021/12/18 00:50:24;;;;;;;10.33;3.37;;;;;;;;;;4973895;28;20435;-59
2021/12/18 00:52:51;;;;;;;8.07;2.40;;;;;;;;;;4974075;28;20109;-59
2021/12/18 00:55:22;;;;;;;4.60;2.20;;;;;;;;;;4969973;28;20022;-59
2021/12/18 00:57:49;;;;;;;8.03;2.23;;;;;;;;;;4968166;28;20023;-60
2021/12/18 01:00:21;;;;;;;4.20;2.70;;;;;;;;;;4968080;28;20066;-59
2021/12/18 01:02:50;;;;;;;4.50;2.23;;;;;;;;;;4968019;28;20061;-59
2021/12/18 01:05:17;;;;;;;7.27;2.70;;;;;;;;;;4971790;28;20482;-59
2021/12/18 01:07:43;;;;;;;9.23;2.30;;;;;;;;;;4973584;28;20069;-59
2021/12/18 01:12:58;;;;;;;4.53;2.97;;;;;;;;;;4972928;28;20097;-60
2021/12/18 01:15:31;;;;;;;6.17;2.50;;;;;;;;;;4973277;28;20501;-59
2021/12/18 01:23:28;;;;;;;8.87;2.93;;;;;;;;;;4968341;28;20281;-59
2021/12/18 01:25:56;;;;;;;11.20;3.27;;;;;;;;;;4967853;28;20031;-59
2021/12/18 01:28:23;;;;;;;10.10;3.80;;;;;;;;;;4973450;28;20166;-60
2021/12/18 01:30:50;;;;;;;9.23;3.17;;;;;;;;;;4973057;28;20109;-59
2021/12/18 01:33:17;;;;;;;8.80;3.67;;;;;;;;;;4973177;28;20496;-60
2021/12/18 01:35:44;;;;;;;7.67;3.10;;;;;;;;;;4972939;28;20105;-60
2021/12/18 01:38:11;;;;;;;9.87;3.07;;;;;;;;;;4973238;28;20373;-59
2021/12/18 01:40:38;;;;;;;6.37;2.80;;;;;;;;;;4967680;28;20031;-60
2021/12/18 01:46:05;;;;;;;8.30;3.00;;;;;;;;;;4967701;28;20038;-60
2021/12/18 01:53:42;;;;;;;7.97;2.50;;;;;;;;;;4973010;28;20030;-59
2021/12/18 01:56:09;;;;;;;7.43;2.57;;;;;;;;;;4973062;28;20114;-59
2021/12/18 01:58:36;;;;;;;5.50;2.47;;;;;;;;;;4972982;28;20475;-61
2021/12/18 02:01:03;;;;;;;6.90;2.10;;;;;;;;;;4971088;28;20085;-59
2021/12/18 02:03:31;;;;;;;7.93;3.17;;;;;;;;;;4967704;28;20022;-59
2021/12/18 02:05:57;;;;;;;6.83;2.80;;;;;;;;;;4967696;28;20118;-59
2021/12/18 02:08:26;;;;;;;7.40;2.50;;;;;;;;;;4967338;28;20093;-60
2021/12/18 02:11:23;;;;;;;3.87;2.37;;;;;;;;;;4972252;28;20034;-59
2021/12/18 02:21:48;;;;;;;7.15;2.40;;;;;;;;;;4976112;28;20046;-59
2021/12/18 02:24:15;;;;;;;4.47;2.57;;;;;;;;;;4972443;28;20490;-59
2021/12/18 02:26:42;;;;;;;5.53;3.30;;;;;;;;;;4971073;28;20035;-59
2021/12/18 02:29:13;;;;;;;8.50;2.77;;;;;;;;;;4970965;28;20170;-59
2021/12/18 02:31:40;;;;;;;7.10;2.67;;;;;;;;;;4971126;28;20041;-59
2021/12/18 02:34:17;;;;;;;4.83;2.43;;;;;;;;;;4974193;28;20019;-59
2021/12/18 02:36:47;;;;;;;4.60;2.70;;;;;;;;;;4976288;28;20031;-59
2021/12/18 02:42:19;;;;;;;5.43;2.50;;;;;;;;;;4943131;28;20494;-59
2021/12/18 02:44:46;;;;;;;5.50;3.30;;;;;;;;;;4976048;28;20453;-60
2021/12/18 02:47:14;;;;;;;7.97;2.93;;;;;;;;;;4951509;29;20027;-59
2021/12/18 02:49:45;;;;;;;8.43;2.80;;;;;;;;;;4969486;28;20019;-59
2021/12/18 02:52:11;;;;;;;8.13;3.97;;;;;;;;;;4970466;28;20038;-59
2021/12/18 02:54:39;;;;;;;7.97;3.23;;;;;;;;;;4970295;28;20109;-59
2021/12/18 02:57:06;;;;;;;8.07;3.33;;;;;;;;;;4975278;28;20018;-59
2021/12/18 02:59:47;;;;;;;7.33;3.43;;;;;;;;;;4975736;28;20023;-59
2021/12/18 03:02:14;;;;;;;8.93;2.80;;;;;;;;;;4975325;28;20035;-59
2021/12/18 03:04:43;;;;;;;6.40;3.10;;;;;;;;;;4975469;28;20027;-59
2021/12/18 03:07:12;;;;;;;5.53;2.63;;;;;;;;;;4975649;28;20033;-59
2021/12/18 03:19:03;;;;;;;6.67;2.87;;;;;;;;;;4970522;28;20027;-59
2021/12/18 03:25:56;;;;;;;4.07;2.20;;;;;;;;;;4975372;28;20096;-59
2021/12/18 03:28:23;;;;;;;9.97;3.67;;;;;;;;;;4974800;28;20042;-59
2021/12/18 03:30:50;;;;;;;5.27;2.80;;;;;;;;;;4971842;28;20027;-59
2021/12/18 03:33:16;;;;;;;6.93;2.60;;;;;;;;;;4969724;28;20044;-59
2021/12/18 03:35:43;;;;;;;5.97;2.17;;;;;;;;;;4969977;28;20520;-59
2021/12/18 03:38:10;;;;;;;5.30;2.17;;;;;;;;;;4969727;28;20118;-59
2021/12/18 03:40:37;;;;;;;8.97;2.33;;;;;;;;;;4972415;28;20031;-59
2021/12/18 03:43:04;;;;;;;5.37;2.20;;;;;;;;;;4975118;28;20453;-59
2021/12/18 03:45:31;;;;;;;6.07;2.10;;;;;;;;;;4974672;28;20031;-59
2021/12/18 03:47:57;;;;;;;5.13;2.13;;;;;;;;;;4974978;28;20555;-59
2021/12/18 03:50:24;;;;;;;4.70;1.93;;;;;;;;;;4974550;28;20394;-59
2021/12/18 03:52:51;;;;;;;3.73;1.67;;;;;;;;;;4971905;28;20497;-59
2021/12/18 03:55:18;;;;;;;5.33;2.10;;;;;;;;;;4969373;28;20031;-59
2021/12/18 03:57:45;;;;;;;3.77;1.67;;;;;;;;;;4968906;28;20494;-59
2021/12/18 04:00:13;;;;;;;8.67;2.50;;;;;;;;;;4969459;28;20041;-58
2021/12/18 04:02:40;;;;;;;3.93;1.77;;;;;;;;;;4971733;28;20487;-59
2021/12/18 04:05:07;;;;;;;5.10;1.67;;;;;;;;;;4974643;28;20066;-59
2021/12/18 04:07:41;;;;;;;4.10;1.70;;;;;;;;;;4974037;28;20034;-60
2021/12/18 04:10:08;;;;;;;6.33;1.77;;;;;;;;;;4970673;28;20511;-59
2021/12/18 04:12:35;;;;;;;2.77;1.40;;;;;;;;;;4974460;28;20035;-60
2021/12/18 04:15:02;;;;;;;3.20;1.70;;;;;;;;;;4971851;28;20035;-59
2021/12/18 04:17:29;;;;;;;6.00;2.03;;;;;;;;;;4969100;28;20105;-61
2021/12/18 04:19:55;;;;;;;4.07;1.60;;;;;;;;;;4969640;28;20035;-60
2021/12/18 04:22:23;;;;;;;4.37;1.60;;;;;;;;;;4969797;28;20050;-60
2021/12/18 04:24:50;;;;;;;3.57;2.03;;;;;;;;;;4970896;28;20027;-59
2021/12/18 04:27:16;;;;;;;3.20;1.70;;;;;;;;;;4974173;28;20031;-58
2021/12/18 04:29:43;;;;;;;4.23;2.30;;;;;;;;;;4974149;28;20031;-60
2021/12/18 04:32:10;;;;;;;4.17;2.10;;;;;;;;;;4973968;28;20042;-60
2021/12/18 04:34:37;;;;;;;7.13;2.13;;;;;;;;;;4973480;28;20034;-60
2021/12/18 04:37:03;;;;;;;7.17;2.10;;;;;;;;;;4972744;28;20027;-60
2021/12/18 04:39:30;;;;;;;6.70;2.43;;;;;;;;;;4969185;28;20026;-60
2021/12/18 04:41:58;;;;;;;6.47;2.30;;;;;;;;;;4969398;28;20139;-60
2021/12/18 04:44:25;;;;;;;5.50;2.30;;;;;;;;;;4969116;28;20430;-60
2021/12/18 04:46:53;;;;;;;5.40;2.10;;;;;;;;;;4970321;28;20034;-61
2021/12/18 04:49:19;;;;;;;6.47;2.10;;;;;;;;;;4973917;28;20023;-59
2021/12/18 04:51:46;;;;;;;3.90;2.00;;;;;;;;;;4973743;28;20466;-60
2021/12/18 04:54:13;;;;;;;3.67;1.70;;;;;;;;;;4974052;28;20443;-59
2021/12/18 04:56:40;;;;;;;6.10;1.40;;;;;;;;;;4973681;28;20035;-58
2021/12/18 04:59:07;;;;;;;3.43;2.00;;;;;;;;;;4970490;28;20082;-58
2021/12/18 05:01:39;;;;;;;3.83;1.47;;;;;;;;;;4968699;28;20073;-58
2021/12/18 05:04:11;;;;;;;7.10;2.27;;;;;;;;;;4968692;28;20030;-59
2021/12/18 05:06:40;;;;;;;5.87;2.40;;;;;;;;;;4968835;28;20475;-58
2021/12/18 05:09:07;;;;;;;5.53;2.63;;;;;;;;;;4970317;28;20486;-58
2021/12/18 05:11:34;;;;;;;5.30;2.00;;;;;;;;;;4972864;28;20489;-58
2021/12/18 05:14:01;;;;;;;7.97;2.83;;;;;;;;;;4970027;28;20031;-58
2021/12/18 05:16:28;;;;;;;6.33;2.10;;;;;;;;;;4969292;28;20027;-58
2021/12/18 05:18:54;;;;;;;8.27;2.40;;;;;;;;;;4969786;28;20050;-58
2021/12/18 05:21:21;;;;;;;6.87;2.77;;;;;;;;;;4971314;28;20466;-58
2021/12/18 05:23:48;;;;;;;5.37;2.50;;;;;;;;;;4968541;28;20518;-58
2021/12/18 05:26:15;;;;;;;6.17;2.00;;;;;;;;;;4967945;28;20041;-58
2021/12/18 05:28:42;;;;;;;9.10;2.00;;;;;;;;;;4968213;28;20034;-58
2021/12/18 05:31:09;;;;;;;5.97;1.90;;;;;;;;;;4956220;28;20027;-58
2021/12/18 05:33:36;;;;;;;4.03;1.53;;;;;;;;;;4973377;28;20027;-58
2021/12/18 05:36:13;;;;;;;4.17;1.63;;;;;;;;;;4973211;28;20471;-58
2021/12/18 05:38:40;;;;;;;6.30;1.63;;;;;;;;;;4973310;28;20110;-58
2021/12/18 05:41:07;;;;;;;4.60;2.20;;;;;;;;;;4973355;28;20703;-58
2021/12/18 05:43:33;;;;;;;7.50;1.67;;;;;;;;;;4971372;28;20062;-58
2021/12/18 05:46:00;;;;;;;6.47;2.00;;;;;;;;;;4971990;28;20058;-59
2021/12/18 05:48:27;;;;;;;5.27;1.90;;;;;;;;;;4972140;28;20081;-58
2021/12/18 05:50:54;;;;;;;9.83;3.00;;;;;;;;;;4971754;28;20034;-58
2021/12/18 05:53:20;;;;;;;7.53;2.47;;;;;;;;;;4972717;28;20038;-58
2021/12/18 05:55:47;;;;;;;4.77;1.43;;;;;;;;;;4976744;28;20023;-58
2021/12/18 05:58:14;;;;;;;5.40;2.47;;;;;;;;;;4976933;28;20035;-58
2021/12/18 06:00:41;;;;;;;4.97;2.20;;;;;;;;;;4976723;28;20065;-58
2021/12/18 06:03:07;;;;;;;3.90;1.60;;;;;;;;;;4976724;28;20034;-58
2021/12/18 06:05:34;;;;;;;3.97;1.67;;;;;;;;;;4975594;28;20035;-58
2021/12/18 06:08:03;;;;;;;5.03;1.57;;;;;;;;;;4970892;28;20118;-58
2021/12/18 06:10:33;;;;;;;9.53;2.40;;;;;;;;;;4971066;28;20030;-58
2021/12/18 06:13:02;;;;;;;2.53;1.23;;;;;;;;;;4971341;28;20118;-58
2021/12/18 06:15:29;;;;;;;6.73;1.30;;;;;;;;;;4972194;28;20038;-58
2021/12/18 06:17:56;;;;;;;4.80;1.77;;;;;;;;;;4976539;28;20026;-58
2021/12/18 06:20:23;;;;;;;4.53;1.70;;;;;;;;;;4976431;28;20037;-58
2021/12/18 06:22:50;;;;;;;2.67;1.30;;;;;;;;;;4976088;28;20030;-58
2021/12/18 06:25:17;;;;;;;3.73;1.60;;;;;;;;;;4976475;28;20478;-58
2021/12/18 06:27:44;;;;;;;4.53;1.70;;;;;;;;;;4965086;28;20054;-58
2021/12/18 06:30:11;;;;;;;4.77;2.30;;;;;;;;;;4971440;28;20031;-58
2021/12/18 06:32:38;;;;;;;7.00;1.70;;;;;;;;;;4971292;28;20023;-58
2021/12/18 06:35:05;;;;;;;6.13;2.17;;;;;;;;;;4971450;28;20023;-58
2021/12/18 06:37:32;;;;;;;6.20;1.90;;;;;;;;;;4971532;28;20085;-58
2021/12/18 06:39:58;;;;;;;6.30;2.50;;;;;;;;;;4976283;28;20038;-58
2021/12/18 06:42:25;;;;;;;3.23;1.70;;;;;;;;;;4976455;28;20034;-58
2021/12/18 06:44:52;;;;;;;2.60;1.30;;;;;;;;;;4976186;28;20475;-58
2021/12/18 06:47:19;;;;;;;5.30;1.90;;;;;;;;;;4976191;28;20023;-58
2021/12/18 06:49:45;;;;;;;4.33;1.30;;;;;;;;;;4975547;28;20097;-58
2021/12/18 06:52:12;;;;;;;2.53;1.47;;;;;;;;;;4970656;28;20041;-58
2021/12/18 06:54:39;;;;;;;3.33;1.17;;;;;;;;;;4970368;28;20031;-58
2021/12/18 06:57:06;;;;;;;2.63;1.40;;;;;;;;;;4970444;28;20486;-58
2021/12/18 06:59:32;;;;;;;3.90;1.57;;;;;;;;;;4970815;28;20117;-58
2021/12/18 07:01:59;;;;;;;4.63;1.60;;;;;;;;;;4975528;28;20027;-58
2021/12/18 07:04:26;;;;;;;6.53;1.60;;;;;;;;;;4975518;28;20441;-58
2021/12/18 07:06:54;;;;;;;8.60;2.10;;;;;;;;;;4975776;28;20035;-58
2021/12/18 07:09:21;;;;;;;2.07;1.20;;;;;;;;;;4975470;28;20509;-58
2021/12/18 07:11:48;;;;;;;4.50;1.60;;;;;;;;;;4975701;28;20390;-58
2021/12/18 07:14:15;;;;;;;8.83;1.83;;;;;;;;;;4970243;28;20031;-58
2021/12/18 07:16:41;;;;;;;5.67;1.67;;;;;;;;;;4970307;28;20086;-58
2021/12/18 07:19:08;;;;;;;2.93;1.43;;;;;;;;;;4970526;28;20082;-58
2021/12/18 07:21:35;;;;;;;3.07;1.47;;;;;;;;;;4969634;28;20042;-58
2021/12/18 07:24:01;;;;;;;7.10;1.43;;;;;;;;;;4975430;28;20058;-58
2021/12/18 07:26:30;;;;;;;3.33;1.80;;;;;;;;;;4974971;28;20058;-58
2021/12/18 07:28:57;;;;;;;3.30;1.97;;;;;;;;;;4975418;28;20070;-58
2021/12/18 07:31:24;;;;;;;4.13;1.80;;;;;;;;;;4975164;28;20031;-58
2021/12/18 07:33:51;;;;;;;3.43;1.70;;;;;;;;;;4974934;28;20053;-58
2021/12/18 07:36:18;;;;;;;5.13;2.10;;;;;;;;;;4970015;28;20030;-58
2021/12/18 07:38:44;;;;;;;5.73;1.93;;;;;;;;;;4969925;28;20031;-58
2021/12/18 07:41:12;;;;;;;13.40;3.27;;;;;;;;;;4969699;28;20039;-58
2021/12/18 07:43:38;;;;;;;6.30;1.83;;;;;;;;;;4969736;28;20035;-58
2021/12/18 07:46:05;;;;;;;4.93;2.03;;;;;;;;;;4974359;28;20027;-58
2021/12/18 07:48:32;;;;;;;4.17;2.03;;;;;;;;;;4975189;28;20026;-57
2021/12/18 07:50:59;;;;;;;4.03;2.10;;;;;;;;;;4974896;28;20066;-58
2021/12/18 07:53:25;;;;;;;5.03;3.20;;;;;;;;;;4974960;28;20030;-58
2021/12/18 07:55:52;;;;;;;4.40;1.83;;;;;;;;;;4974937;28;20059;-58
2021/12/18 07:58:19;;;;;;;4.10;1.80;;;;;;;;;;4969733;28;20113;-58
2021/12/18 08:00:46;;;;;;;4.07;1.87;;;;;;;;;;4969280;28;20046;-58
2021/12/18 08:03:12;;;;;;;2.97;1.80;;;;;;;;;;4969249;28;20162;-58
2021/12/18 08:05:39;;;;;;;2.77;1.30;;;;;;;;;;4969275;28;20425;-58
2021/12/18 08:08:06;;;;;;;4.40;1.87;;;;;;;;;;4972711;28;20035;-58
2021/12/18 08:10:33;;;;;;;5.10;2.23;;;;;;;;;;4974570;28;20272;-58
2021/12/18 08:13:00;;;;;;;4.83;2.13;;;;;;;;;;4974047;28;20279;-58
2021/12/18 08:15:26;;;;;;;3.53;1.87;;;;;;;;;;4974568;28;20271;-58
2021/12/18 08:17:53;;;;;;;6.80;3.30;;;;;;;;;;4974413;28;20277;-58
2021/12/18 08:20:20;;;;;;;2.97;1.67;;;;;;;;;;4969895;28;20331;-57
2021/12/18 08:22:46;;;;;;;4.07;1.77;;;;;;;;;;4969026;28;20688;-57
2021/12/18 08:25:13;;;;;;;3.93;2.10;;;;;;;;;;4969067;28;20268;-57
2021/12/18 08:27:40;;;;;;;3.17;1.63;;;;;;;;;;4968899;28;20273;-58
2021/12/18 08:30:07;;;;;;;3.93;2.00;;;;;;;;;;4972327;28;20034;-58
2021/12/18 08:32:34;;;;;;;3.60;1.83;;;;;;;;;;4974454;28;20292;-58
2021/12/18 08:35:01;;;;;;;3.80;2.20;;;;;;;;;;4974010;28;20269;-58
2021/12/18 08:37:27;;;;;;;4.57;2.10;;;;;;;;;;4974045;28;20693;-57
2021/12/18 08:39:54;;;;;;;4.47;2.47;;;;;;;;;;4973682;28;20284;-58
2021/12/18 08:42:21;;;;;;;4.20;2.20;;;;;;;;;;4969419;28;20277;-58
2021/12/18 08:44:48;;;;;;;4.40;2.33;;;;;;;;;;4968895;28;20261;-58
2021/12/18 08:47:16;;;;;;;4.67;1.93;;;;;;;;;;4968318;28;20364;-57
2021/12/18 08:49:43;;;;;;;4.50;2.23;;;;;;;;;;4968568;28;20268;-58
2021/12/18 08:52:10;;;;;;;6.73;2.43;;;;;;;;;;4971941;28;20307;-57
2021/12/18 08:54:36;;;;;;;4.17;2.27;;;;;;;;;;4974071;28;21094;-58
2021/12/18 08:57:03;;;;;;;6.37;2.63;;;;;;;;;;4973635;28;20304;-57
2021/12/18 08:59:30;;;;;;;4.53;1.80;;;;;;;;;;4973738;28;20248;-57
2021/12/18 09:01:57;;;;;;;4.97;2.30;;;;;;;;;;4973118;28;20280;-58
2021/12/18 09:04:23;;;;;;;13.10;2.50;;;;;;;;;;4969901;28;20273;-58
2021/12/18 09:06:50;;;;;;;3.77;2.00;;;;;;;;;;4968233;28;20280;-58
2021/12/18 09:09:17;;;;;;;4.40;2.20;;;;;;;;;;4967801;28;20355;-58
2021/12/18 09:11:44;;;;;;;4.67;2.27;;;;;;;;;;4968021;28;20307;-58
2021/12/18 09:14:10;;;;;;;4.17;1.73;;;;;;;;;;4971020;28;20675;-58
2021/12/18 09:16:37;;;;;;;5.60;2.33;;;;;;;;;;4973422;28;20268;-58
2021/12/18 09:19:04;;;;;;;4.97;2.20;;;;;;;;;;4972494;28;20245;-58
2021/12/18 09:21:31;;;;;;;11.73;3.80;;;;;;;;;;4973546;28;20296;-58
2021/12/18 09:23:57;;;;;;;8.13;2.63;;;;;;;;;;4973236;28;20755;-58
2021/12/18 09:26:24;;;;;;;5.10;2.70;;;;;;;;;;4970101;28;20260;-58
2021/12/18 09:28:51;;;;;;;3.80;2.30;;;;;;;;;;4968195;28;20624;-58
2021/12/18 09:31:18;;;;;;;3.90;2.13;;;;;;;;;;4967929;28;20416;-58
2021/12/18 09:33:44;;;;;;;4.13;1.93;;;;;;;;;;4967922;28;20264;-58
2021/12/18 09:36:11;;;;;;;3.93;2.00;;;;;;;;;;4970691;28;20415;-57
2021/12/18 09:38:38;;;;;;;5.10;2.23;;;;;;;;;;4973429;28;20261;-57
2021/12/18 09:41:06;;;;;;;5.73;2.30;;;;;;;;;;4972821;28;20299;-58
2021/12/18 09:43:33;;;;;;;3.93;2.43;;;;;;;;;;4972809;28;20680;-58
2021/12/18 09:46:05;;;;;;;5.63;2.00;;;;;;;;;;4973323;28;20265;-58
2021/12/18 09:48:32;;;;;;;4.87;2.30;;;;;;;;;;4969836;28;20347;-57
2021/12/18 09:50:59;;;;;;;5.97;2.20;;;;;;;;;;4967943;28;20268;-58
2021/12/18 09:53:26;;;;;;;5.80;2.73;;;;;;;;;;4968128;28;20372;-58
2021/12/18 09:55:53;;;;;;;4.50;2.33;;;;;;;;;;4967793;28;20351;-58
2021/12/18 09:58:20;;;;;;;4.10;2.20;;;;;;;;;;4970714;28;20368;-58
2021/12/18 10:00:47;;;;;;;4.27;2.23;;;;;;;;;;4972872;28;20281;-57
2021/12/18 10:03:13;;;;;;;4.00;2.17;;;;;;;;;;4973012;28;20668;-58
2021/12/18 10:05:40;;;;;;;2.90;1.80;;;;;;;;;;4972959;28;20750;-57
2021/12/18 10:08:11;;;;;;;5.03;2.53;;;;;;;;;;4972817;28;20344;-58
2021/12/18 10:10:39;;;;;;;4.17;2.23;;;;;;;;;;4969914;28;20257;-58
2021/12/18 10:13:07;;;;;;;4.10;2.30;;;;;;;;;;4967499;28;20775;-57
2021/12/18 10:15:34;;;;;;;3.27;1.63;;;;;;;;;;4967627;28;20332;-57
2021/12/18 10:18:05;;;;;;;4.10;2.20;;;;;;;;;;4967557;28;20344;-58
2021/12/18 10:20:32;;;;;;;3.47;1.80;;;;;;;;;;4970087;28;20288;-57
2021/12/18 10:23:02;;;;;;;4.37;2.03;;;;;;;;;;4972676;28;20355;-58
2021/12/18 10:25:30;;;;;;;4.03;2.33;;;;;;;;;;4972781;28;20264;-57
2021/12/18 10:28:08;;;;;;;4.43;2.30;;;;;;;;;;4973065;28;20312;-58
2021/12/18 10:30:36;;;;;;;4.27;1.97;;;;;;;;;;4974609;28;20612;-58
2021/12/18 10:33:07;;;;;;;3.60;1.87;;;;;;;;;;4973253;28;20269;-58
2021/12/18 10:35:41;;;;;;;4.67;2.03;;;;;;;;;;4971071;28;20260;-57
2021/12/18 10:38:08;;;;;;;3.17;1.97;;;;;;;;;;4971108;28;20368;-57
2021/12/18 10:40:42;;;;;;;3.87;2.20;;;;;;;;;;4970822;28;20296;-58
2021/12/18 10:43:09;;;;;;;4.00;1.80;;;;;;;;;;4973494;28;20281;-58
2021/12/18 10:45:36;;;;;;;7.63;2.37;;;;;;;;;;4975888;28;20261;-57
2021/12/18 10:48:04;;;;;;;2.70;1.80;;;;;;;;;;4976092;28;20273;-58
2021/12/18 10:50:37;;;;;;;4.73;1.83;;;;;;;;;;4975640;28;20360;-58
2021/12/18 10:53:11;;;;;;;3.90;1.53;;;;;;;;;;4976159;28;20267;-58
2021/12/18 10:55:41;;;;;;;4.10;1.80;;;;;;;;;;4971687;28;20267;-58
2021/12/18 10:58:10;;;;;;;5.10;2.20;;;;;;;;;;4970868;28;20256;-58
2021/12/18 11:00:39;;;;;;;3.63;1.73;;;;;;;;;;4970366;28;20289;-58
2021/12/18 11:03:21;;;;;;;2.80;1.57;;;;;;;;;;4970560;28;20272;-58
2021/12/18 11:06:06;;;;;;;6.93;2.23;;;;;;;;;;4974998;28;20740;-58
2021/12/18 11:08:36;;;;;;;4.63;1.40;;;;;;;;;;4976075;28;20339;-57
2021/12/18 11:14:08;;;;;;;3.67;1.60;;;;;;;;;;4922607;28;20279;-57
2021/12/18 11:16:36;;;;;;;3.30;1.70;;;;;;;;;;4974001;28;20676;-58
2021/12/18 11:19:07;;;;;;;3.63;1.80;;;;;;;;;;4970534;28;20323;-58
2021/12/18 11:21:35;;;;;;;2.73;1.50;;;;;;;;;;4969668;28;20383;-57
2021/12/18 11:24:06;;;;;;;3.03;1.80;;;;;;;;;;4970354;28;20272;-57
2021/12/18 11:26:41;;;;;;;4.43;2.30;;;;;;;;;;4971338;28;20263;-57
2021/12/18 11:29:22;;;;;;;8.13;2.47;;;;;;;;;;4975690;28;20345;-57
2021/12/18 11:31:49;;;;;;;6.17;2.07;;;;;;;;;;4974942;28;20340;-57
2021/12/18 11:34:16;;;;;;;4.00;2.33;;;;;;;;;;4975788;28;21009;-58
2021/12/18 11:36:45;;;;;;;5.80;2.43;;;;;;;;;;4975297;28;20364;-57
2021/12/18 11:39:12;;;;;;;4.43;2.23;;;;;;;;;;4972882;28;20267;-57
2021/12/18 11:41:40;;;;;;;4.30;2.47;;;;;;;;;;4968575;28;20292;-58
2021/12/18 11:44:25;;;;;;;5.63;2.03;;;;;;;;;;4969687;28;20765;-58
2021/12/18 11:46:52;;;;;;;6.18;2.33;;;;;;;;;;4969353;28;20272;-57
2021/12/18 11:49:21;;;;;;;8.40;2.30;;;;;;;;;;4972566;28;20113;-57
2021/12/18 11:51:58;;;;;;;5.17;2.60;;;;;;;;;;4975008;28;20264;-58
2021/12/18 11:54:44;;;;;;;5.53;2.63;;;;;;;;;;4974674;28;20663;-58
2021/12/18 11:57:11;;;;;;;6.23;2.60;;;;;;;;;;4975142;28;20736;-57
2021/12/18 11:59:42;;;;;;;3.57;1.97;;;;;;;;;;4975064;28;20585;-58
2021/12/18 12:02:11;;;;;;;8.27;3.03;;;;;;;;;;4970354;28;20525;-58
2021/12/18 12:05:00;;;;;;;7.17;3.23;;;;;;;;;;4969288;28;20272;-58
2021/12/18 12:07:27;;;;;;;5.00;2.73;;;;;;;;;;4961739;28;20285;-57
2021/12/18 12:11:03;;;;;;;4.87;2.20;;;;;;;;;;4969446;28;20272;-57
2021/12/18 12:13:42;;;;;;;8.07;2.37;;;;;;;;;;4913701;29;20325;-57
2021/12/18 12:16:09;;;;;;;3.57;1.90;;;;;;;;;;4974280;28;20766;-57
2021/12/18 12:18:55;;;;;;;3.57;1.70;;;;;;;;;;4974534;28;20280;-57
2021/12/18 12:21:57;;;;;;;4.50;1.90;;;;;;;;;;4973955;28;20285;-58
2021/12/18 12:24:25;;;;;;;5.47;2.70;;;;;;;;;;4910212;29;20279;-57
2021/12/18 12:26:55;;;;;;;6.73;2.70;;;;;;;;;;4957799;28;20280;-57
2021/12/18 12:29:22;;;;;;;5.17;1.93;;;;;;;;;;4969166;28;20267;-57
2021/12/18 12:32:00;;;;;;;4.40;2.30;;;;;;;;;;4969133;28;20593;-58
2021/12/18 12:34:31;;;;;;;13.17;4.97;;;;;;;;;;4973358;28;20311;-57
2021/12/18 12:36:58;;;;;;;6.57;2.90;;;;;;;;;;4974097;28;20269;-57
2021/12/18 12:39:45;;;;;;;5.20;2.50;;;;;;;;;;4974079;28;20260;-57
2021/12/18 12:42:11;;;;;;;18.70;4.33;;;;;;;;;;4973298;28;20276;-57
2021/12/18 12:44:49;;;;;;;5.40;2.80;;;;;;;;;;4974082;28;20323;-57
2021/12/18 12:47:24;;;;;;;5.10;2.60;;;;;;;;;;4968543;28;20795;-57
2021/12/18 12:49:52;;;;;;;6.22;3.17;;;;;;;;;;4968646;28;20281;-57
2021/12/18 12:52:20;;;;;;;5.40;2.53;;;;;;;;;;4968486;28;20602;-58
2021/12/18 12:54:49;;;;;;;5.03;2.33;;;;;;;;;;4968504;28;20256;-57
2021/12/18 12:57:30;;;;;;;8.73;2.60;;;;;;;;;;4973693;28;20264;-59
2021/12/18 12:59:59;;;;;;;5.30;2.67;;;;;;;;;;4970543;28;20284;-58
2021/12/18 13:02:27;;;;;;;5.43;3.10;;;;;;;;;;4973688;28;20268;-58
2021/12/18 13:05:02;;;;;;;6.73;2.77;;;;;;;;;;4973619;28;20289;-58
2021/12/18 13:07:29;;;;;;;7.60;3.60;;;;;;;;;;4972209;28;20292;-57
2021/12/18 13:09:56;;;;;;;7.10;3.53;;;;;;;;;;4968443;28;20261;-58
2021/12/18 13:12:23;;;;;;;4.37;2.67;;;;;;;;;;4968050;28;20285;-58
2021/12/18 13:14:52;;;;;;;4.20;2.33;;;;;;;;;;4968334;28;20631;-58
2021/12/18 13:17:23;;;;;;;4.33;2.20;;;;;;;;;;4968176;28;20616;-58
2021/12/18 13:19:53;;;;;;;5.17;2.60;;;;;;;;;;4973710;28;20256;-58
2021/12/18 13:22:27;;;;;;;4.77;2.83;;;;;;;;;;4973455;28;20292;-58
2021/12/18 13:25:04;;;;;;;7.27;3.57;;;;;;;;;;4973458;28;20289;-58
2021/12/18 13:27:31;;;;;;;4.73;2.30;;;;;;;;;;4973108;28;20798;-58
2021/12/18 13:30:18;;;;;;;5.37;2.43;;;;;;;;;;4970996;28;20276;-57
2021/12/18 13:32:51;;;;;;;3.57;2.10;;;;;;;;;;4967946;28;20268;-58
2021/12/18 13:35:18;;;;;;;12.93;3.70;;;;;;;;;;4968236;28;20759;-58
2021/12/18 13:38:04;;;;;;;6.30;3.50;;;;;;;;;;4967030;28;20324;-58
2021/12/18 13:40:33;;;;;;;7.57;3.40;;;;;;;;;;4951408;29;20293;-58
2021/12/18 13:43:07;;;;;;;13.00;4.40;;;;;;;;;;4969840;28;20281;-58
2021/12/18 13:45:49;;;;;;;17.10;5.93;;;;;;;;;;4973224;28;20339;-58
2021/12/18 13:48:16;;;;;;;15.53;4.37;;;;;;;;;;4973116;28;20272;-57
2021/12/18 13:50:42;;;;;;;8.83;4.07;;;;;;;;;;4973061;28;20265;-57
2021/12/18 13:53:09;;;;;;;7.87;3.40;;;;;;;;;;4968995;28;21187;-58
2021/12/18 13:55:36;;;;;;;9.03;3.20;;;;;;;;;;4967878;28;20265;-58
2021/12/18 13:58:07;;;;;;;14.00;5.50;;;;;;;;;;4967400;28;20331;-58
2021/12/18 14:00:46;;;;;;;10.00;3.67;;;;;;;;;;4967514;28;20300;-58
2021/12/18 14:03:20;;;;;;;6.60;2.80;;;;;;;;;;4971809;28;20261;-58
2021/12/18 14:05:48;;;;;;;8.67;2.93;;;;;;;;;;4975500;28;20261;-58
2021/12/18 14:08:15;;;;;;;11.03;3.07;;;;;;;;;;4976490;28;20026;-58
2021/12/18 14:10:42;;;;;;;5.47;3.10;;;;;;;;;;4976622;28;20382;-58
2021/12/18 14:13:09;;;;;;;8.03;4.50;;;;;;;;;;4977459;28;20035;-58
2021/12/18 14:15:38;;;;;;;7.87;4.70;;;;;;;;;;4971590;28;20069;-58
2021/12/18 14:18:24;;;;;;;9.03;4.87;;;;;;;;;;4971320;28;20027;-58
2021/12/18 14:20:51;;;;;;;9.90;5.43;;;;;;;;;;4969948;28;20046;-58
2021/12/18 14:23:18;;;;;;;8.20;5.40;;;;;;;;;;4971218;28;20783;-59
2021/12/18 14:25:45;;;;;;;11.77;5.27;;;;;;;;;;4976339;28;20046;-58
2021/12/18 14:28:19;;;;;;;7.60;4.73;;;;;;;;;;4976587;28;20026;-58
2021/12/18 14:30:46;;;;;;;9.75;4.90;;;;;;;;;;4976660;28;20030;-58
2021/12/18 14:33:18;;;;;;;10.27;5.00;;;;;;;;;;4976366;28;20097;-59
2021/12/18 14:35:49;;;;;;;12.90;5.40;;;;;;;;;;4975546;28;20031;-58
2021/12/18 14:38:16;;;;;;;11.47;4.80;;;;;;;;;;4959395;28;20109;-58
2021/12/18 14:40:43;;;;;;;7.67;4.30;;;;;;;;;;4971083;28;20109;-58
2021/12/18 14:43:15;;;;;;;9.03;5.30;;;;;;;;;;4970244;28;20053;-58
2021/12/18 14:45:42;;;;;;;10.07;5.63;;;;;;;;;;4970596;28;20111;-59
2021/12/18 14:48:09;;;;;;;9.10;4.63;;;;;;;;;;4976060;28;20041;-58
2021/12/18 14:50:45;;;;;;;14.17;5.50;;;;;;;;;;4976209;28;20035;-58
2021/12/18 14:53:11;;;;;;;7.93;4.70;;;;;;;;;;4975351;28;20111;-58
2021/12/18 14:55:41;;;;;;;6.93;4.43;;;;;;;;;;4976028;28;20085;-58
2021/12/18 14:58:12;;;;;;;9.80;4.80;;;;;;;;;;4974660;28;20034;-58
2021/12/18 15:00:58;;;;;;;9.87;5.00;;;;;;;;;;4970818;28;20062;-58
2021/12/18 15:03:32;;;;;;;13.27;6.50;;;;;;;;;;4970167;28;20023;-58
2021/12/18 15:06:00;;;;;;;12.63;7.32;;;;;;;;;;4970555;28;20034;-59
2021/12/18 15:08:38;;;;;;;13.93;7.37;;;;;;;;;;4971380;28;20030;-58
2021/12/18 15:11:12;;;;;;;20.33;8.50;;;;;;;;;;4975977;28;20446;-58
2021/12/18 15:13:41;;;;;;;16.57;8.13;;;;;;;;;;4975751;28;20027;-58
2021/12/18 15:16:08;;;;;;;17.90;9.10;;;;;;;;;;4975872;28;20539;-59
2021/12/18 15:18:35;;;;;;;18.23;8.17;;;;;;;;;;4975587;28;20093;-58
2021/12/18 15:21:02;;;;;;;14.33;7.30;;;;;;;;;;4972731;28;20050;-59
2021/12/18 15:23:29;;;;;;;14.27;7.67;;;;;;;;;;4969854;28;20118;-59
2021/12/18 15:25:55;;;;;;;19.53;7.83;;;;;;;;;;4970427;28;20051;-58
2021/12/18 15:28:22;;;;;;;11.10;6.87;;;;;;;;;;4970177;28;20470;-59
2021/12/18 15:30:49;;;;;;;15.67;7.60;;;;;;;;;;4972122;28;20381;-59
2021/12/18 15:33:16;;;;;;;9.53;5.60;;;;;;;;;;4975023;28;20449;-59
2021/12/18 15:35:43;;;;;;;11.87;5.70;;;;;;;;;;4974607;28;20378;-60